Batchtown, Illinois
Current Conditions -  °F | °C
As of 6:11 PM on Wednesday 26 Nov 2014 (Local Time) from KSET Reporting Station
Haze Haze  
Wind Chill: 27°   Ceiling: 600
Heat Index: 33°   Visibility: 1.7mi
Dew Point: 32°   Wind: 7mph
Humidity: 96%   Direction: 90°E
Pressure: 30.04"   Gusts: NA
Location:  39.03°N, 90.66°W
Report Text: KSET 270011Z AUTO 09006KT 1 3/4SM BR OVC006 01/00 A3004 RMK AO2 T00060000
Loading
Personal Weather Stations






























Interactive Weather Map New forecast layout! Learn more

10-Day Weather Forecast

Advertisements
Track Severe Weather on mobile